Time;durP1;ratioP1;P1;durP2;ratioP2;P2;SDS_P1;SDS_P2;PMS_P1;PMS_P2;Temp;Humidity;BMP_temperature;BMP_pressure;BME280_temperature;BME280_humidity;BME280_pressure;Samples;Min_cycle;Max_cycle;Signal;HPM_P1;HPM_P2
2024/01/19 00:01:05;;;;;;;4.10;3.80;;;-2.00;99.90;;;;;;4984932;28;20278;-82
2024/01/19 00:03:32;;;;;;;3.00;2.90;;;-2.00;99.90;;;;;;4983200;28;20550;-83
2024/01/19 00:06:00;;;;;;;2.65;2.55;;;-2.00;99.90;;;;;;4972173;28;20234;-79
2024/01/19 00:08:27;;;;;;;3.25;2.00;;;-2.00;99.90;;;;;;4970733;28;20511;-78
2024/01/19 00:10:54;;;;;;;4.43;4.13;;;-2.00;99.90;;;;;;4957371;29;20226;-77
2024/01/19 00:13:21;;;;;;;13.70;3.28;;;-2.00;99.90;;;;;;4983688;28;20270;-80
2024/01/19 00:15:49;;;;;;;11.82;4.50;;;-2.00;99.90;;;;;;4986873;28;20266;-81
2024/01/19 00:18:16;;;;;;;1.33;1.33;;;-2.00;99.90;;;;;;4982389;28;20231;-81
2024/01/19 00:20:43;;;;;;;6.55;5.75;;;-2.00;99.90;;;;;;4976451;28;20215;-82
2024/01/19 00:23:12;;;;;;;0.68;0.68;;;-1.90;99.90;;;;;;4979997;28;20286;-79
2024/01/19 00:25:40;;;;;;;5.10;3.78;;;-1.90;99.90;;;;;;4985468;28;20215;-80
2024/01/19 00:28:07;;;;;;;2.70;2.53;;;-1.90;99.90;;;;;;4980002;28;20227;-83
2024/01/19 00:30:34;;;;;;;3.60;2.95;;;-1.90;99.90;;;;;;4983751;28;20209;-79
2024/01/19 00:33:01;;;;;;;4.03;3.78;;;-1.90;99.90;;;;;;4979961;28;20208;-80
2024/01/19 00:35:29;;;;;;;2.05;1.85;;;-1.90;99.90;;;;;;4982236;28;20252;-80
2024/01/19 00:37:55;;;;;;;5.80;5.07;;;-1.90;99.90;;;;;;4976151;28;20231;-86
2024/01/19 00:40:26;;;;;;;8.20;2.47;;;-1.80;99.90;;;;;;4981392;28;20230;-81
2024/01/19 00:42:53;;;;;;;2.08;2.00;;;-1.80;99.90;;;;;;4972401;28;20199;-80
2024/01/19 00:45:20;;;;;;;5.95;5.57;;;-1.80;99.90;;;;;;4979535;28;20398;-80
2024/01/19 00:47:47;;;;;;;4.63;3.55;;;-1.80;99.90;;;;;;4959180;28;20218;-80
2024/01/19 00:50:14;;;;;;;2.85;1.90;;;-1.90;99.90;;;;;;4983949;28;20233;-83
2024/01/19 00:52:41;;;;;;;3.83;3.63;;;-1.90;99.90;;;;;;4973487;28;20207;-79
2024/01/19 00:55:10;;;;;;;3.22;3.05;;;-1.80;99.90;;;;;;4976953;28;20201;-81
2024/01/19 00:57:38;;;;;;;10.07;2.00;;;-1.80;99.90;;;;;;4972029;28;20273;-80
2024/01/19 01:00:06;;;;;;;5.93;3.65;;;-1.70;99.90;;;;;;4966603;28;20199;-79
2024/01/19 01:02:34;;;;;;;4.20;1.90;;;-1.80;99.90;;;;;;4982802;28;20301;-81
2024/01/19 01:05:01;;;;;;;5.38;5.10;;;-1.80;99.90;;;;;;4959985;28;20305;-79
2024/01/19 01:07:28;;;;;;;4.22;3.80;;;-1.70;99.90;;;;;;4959446;29;20499;-79
2024/01/19 01:09:58;;;;;;;1.40;1.40;;;-1.80;99.90;;;;;;4982611;28;20223;-89
2024/01/19 01:12:25;;;;;;;7.15;5.45;;;-1.70;99.90;;;;;;4999411;28;20257;-83
2024/01/19 01:14:52;;;;;;;2.38;2.28;;;-1.80;99.90;;;;;;4997647;28;20207;-82
2024/01/19 01:17:19;;;;;;;5.03;4.60;;;-1.90;99.90;;;;;;4985526;28;20191;-80
2024/01/19 01:19:46;;;;;;;4.13;2.97;;;-1.90;99.90;;;;;;4986064;28;20210;-78
2024/01/19 01:22:13;;;;;;;5.03;3.38;;;-1.80;99.90;;;;;;4972876;28;20213;-82
2024/01/19 01:24:41;;;;;;;4.97;4.53;;;-1.90;99.90;;;;;;4955298;28;20287;-79
2024/01/19 01:27:07;;;;;;;2.75;2.60;;;-1.90;99.90;;;;;;4983504;28;20415;-83
2024/01/19 01:29:36;;;;;;;7.07;5.90;;;-2.10;99.90;;;;;;4983293;28;20237;-80
2024/01/19 01:32:03;;;;;;;3.75;2.80;;;-2.20;99.90;;;;;;4971911;28;20290;-83
2024/01/19 01:34:30;;;;;;;2.05;1.95;;;-2.20;99.90;;;;;;4966744;28;20220;-79
2024/01/19 01:36:59;;;;;;;2.25;2.15;;;-2.30;99.90;;;;;;4971426;28;20222;-86
2024/01/19 01:39:26;;;;;;;3.85;3.55;;;-2.30;99.90;;;;;;4963615;28;20232;-77
2024/01/19 01:41:53;;;;;;;2.38;2.28;;;-2.30;99.90;;;;;;4975508;28;20309;-79
2024/01/19 01:44:20;;;;;;;3.35;3.15;;;-2.40;99.90;;;;;;4980293;28;20274;-84
2024/01/19 01:46:47;;;;;;;3.75;3.50;;;-2.50;99.90;;;;;;4966331;28;20442;-81
2024/01/19 01:49:15;;;;;;;1.05;1.05;;;-2.50;99.90;;;;;;4960583;28;20256;-82
2024/01/19 01:51:44;;;;;;;2.08;1.98;;;-2.60;99.90;;;;;;4975546;28;20211;-88
2024/01/19 01:54:13;;;;;;;6.18;4.38;;;-2.50;99.90;;;;;;4970520;28;20239;-83
2024/01/19 01:56:40;;;;;;;10.05;3.80;;;-2.50;99.90;;;;;;4960667;28;20203;-80
2024/01/19 01:59:09;;;;;;;2.55;1.67;;;-2.40;99.90;;;;;;4984842;28;20539;-79
2024/01/19 02:01:36;;;;;;;3.55;3.25;;;-2.40;99.90;;;;;;4981938;28;20234;-82
2024/01/19 02:04:03;;;;;;;5.47;5.13;;;-2.30;99.90;;;;;;4984273;28;20222;-82
2024/01/19 02:06:30;;;;;;;2.08;1.98;;;-2.30;99.90;;;;;;4977709;28;20226;-81
2024/01/19 02:08:57;;;;;;;1.13;1.13;;;-2.20;99.90;;;;;;4970924;28;20250;-79
2024/01/19 02:11:25;;;;;;;2.70;2.55;;;-2.20;99.90;;;;;;4976351;28;20210;-80
2024/01/19 02:13:52;;;;;;;3.75;3.00;;;-2.30;99.90;;;;;;4978768;28;20222;-81
2024/01/19 02:16:18;;;;;;;3.47;3.22;;;-2.30;99.90;;;;;;4977747;28;20207;-80
2024/01/19 02:18:45;;;;;;;4.03;1.15;;;-2.40;99.90;;;;;;4964965;28;20242;-80
2024/01/19 02:21:13;;;;;;;0.98;0.98;;;-2.60;99.90;;;;;;4976091;28;20282;-83
2024/01/19 02:24:03;;;;;;;1.95;1.85;;;-2.80;99.90;;;;;;4965261;28;20519;-87
2024/01/19 02:26:34;;;;;;;1.35;1.35;;;-2.90;99.90;;;;;;4976271;28;20278;-79
2024/01/19 02:29:01;;;;;;;5.05;4.70;;;-3.00;99.90;;;;;;4982584;28;20276;-78
2024/01/19 02:31:28;;;;;;;0.70;0.70;;;-3.10;99.90;;;;;;4984205;28;20240;-79
2024/01/19 02:33:55;;;;;;;1.20;1.20;;;-3.10;99.90;;;;;;4975327;28;20246;-81
2024/01/19 02:36:22;;;;;;;3.53;3.35;;;-2.90;99.90;;;;;;4980028;28;20211;-84
2024/01/19 02:38:49;;;;;;;3.10;2.95;;;-2.80;99.90;;;;;;4974071;28;20239;-81
2024/01/19 02:41:16;;;;;;;4.43;2.58;;;-2.90;99.90;;;;;;4971674;28;20257;-83
2024/01/19 02:43:43;;;;;;;2.38;2.25;;;-2.90;99.90;;;;;;4977489;28;20207;-82
2024/01/19 02:46:14;;;;;;;1.75;1.75;;;-3.00;99.90;;;;;;4983180;28;20206;-82
2024/01/19 02:48:40;;;;;;;1.95;1.85;;;-3.10;99.90;;;;;;4982930;28;20226;-80
2024/01/19 02:51:07;;;;;;;3.80;3.50;;;-3.10;99.90;;;;;;4972865;28;20207;-84
2024/01/19 02:53:34;;;;;;;0.98;0.98;;;-3.10;99.90;;;;;;4964766;29;20239;-81
2024/01/19 02:56:01;;;;;;;2.58;1.55;;;-3.00;99.90;;;;;;4985768;28;20237;-79
2024/01/19 02:58:28;;;;;;;2.83;2.63;;;-3.00;99.90;;;;;;4977831;28;20229;-78
2024/01/19 03:00:55;;;;;;;2.15;2.05;;;-3.20;99.90;;;;;;4982887;28;20352;-81
2024/01/19 03:03:23;;;;;;;1.92;1.75;;;-3.30;99.90;;;;;;4980307;28;20265;-81
2024/01/19 03:05:50;;;;;;;1.73;1.63;;;-3.30;99.90;;;;;;4982158;28;20267;-81
2024/01/19 03:08:20;;;;;;;0.80;0.80;;;-3.30;99.90;;;;;;4958042;28;20207;-81
2024/01/19 03:10:47;;;;;;;1.92;1.83;;;-3.50;99.90;;;;;;4973714;28;20219;-79
2024/01/19 03:13:16;;;;;;;2.47;1.83;;;-3.50;99.90;;;;;;4982324;28;20270;-79
2024/01/19 03:15:43;;;;;;;2.17;1.48;;;-3.60;99.90;;;;;;4978693;28;20297;-79
2024/01/19 03:18:10;;;;;;;3.33;1.25;;;-3.60;99.90;;;;;;4983836;28;20226;-81
2024/01/19 03:20:37;;;;;;;1.48;1.48;;;-3.60;99.90;;;;;;4984028;28;20278;-79
2024/01/19 03:23:05;;;;;;;3.38;2.63;;;-3.70;99.90;;;;;;4962560;28;20525;-78
2024/01/19 03:25:32;;;;;;;2.22;2.13;;;-3.70;99.90;;;;;;4987472;28;20203;-78
2024/01/19 03:28:00;;;;;;;2.42;2.22;;;-3.80;99.90;;;;;;4987587;28;20213;-78
2024/01/19 03:30:27;;;;;;;2.38;1.17;;;-3.90;99.90;;;;;;4988490;28;20199;-79
2024/01/19 03:32:54;;;;;;;1.30;1.23;;;-4.00;99.90;;;;;;4972511;28;20231;-80
2024/01/19 03:35:21;;;;;;;2.35;2.15;;;-3.90;99.90;;;;;;4980632;28;20503;-79
2024/01/19 03:37:48;;;;;;;2.47;2.28;;;-4.00;99.90;;;;;;4981943;28;20488;-78
2024/01/19 03:40:15;;;;;;;7.78;3.75;;;-4.20;99.90;;;;;;4971674;28;20242;-81
2024/01/19 03:42:42;;;;;;;2.70;2.50;;;-4.10;99.90;;;;;;4982940;28;20214;-79
2024/01/19 03:45:10;;;;;;;4.05;3.40;;;-4.10;99.90;;;;;;4985535;28;20722;-78
2024/01/19 03:47:37;;;;;;;2.13;2.03;;;-3.90;99.90;;;;;;4978905;28;20226;-79
2024/01/19 03:50:05;;;;;;;2.20;2.10;;;-4.00;99.90;;;;;;4987583;28;20234;-82
2024/01/19 03:52:33;;;;;;;2.90;2.08;;;-4.00;99.90;;;;;;4972665;28;20203;-80
2024/01/19 03:55:00;;;;;;;3.45;2.42;;;-4.10;99.90;;;;;;4951568;29;20484;-79
2024/01/19 03:57:27;;;;;;;5.78;5.30;;;-4.20;99.90;;;;;;4979665;28;20223;-82
2024/01/19 03:59:57;;;;;;;3.88;3.50;;;-4.20;99.90;;;;;;4995324;28;20215;-82
2024/01/19 04:02:24;;;;;;;5.25;4.90;;;-4.20;99.90;;;;;;4984402;28;20197;-85
2024/01/19 04:04:52;;;;;;;2.28;2.00;;;-4.20;99.90;;;;;;4982657;28;20195;-85
2024/01/19 04:07:19;;;;;;;2.83;2.72;;;-4.40;99.90;;;;;;4970188;29;20231;-79
2024/01/19 04:09:46;;;;;;;1.40;1.35;;;-4.30;99.90;;;;;;4982953;28;20238;-80
2024/01/19 04:12:15;;;;;;;2.63;2.42;;;-4.30;99.90;;;;;;4980340;28;20206;-79
2024/01/19 04:14:43;;;;;;;3.40;3.10;;;-4.50;99.90;;;;;;4973015;28;20213;-80
2024/01/19 04:17:11;;;;;;;5.68;1.77;;;-4.40;99.90;;;;;;4958273;29;20500;-81
2024/01/19 04:19:40;;;;;;;6.88;3.08;;;-4.50;99.90;;;;;;4962701;28;20258;-82
2024/01/19 04:22:07;;;;;;;4.38;3.95;;;-4.50;99.90;;;;;;4969147;28;20211;-82
2024/01/19 04:24:36;;;;;;;2.80;2.55;;;-4.50;99.90;;;;;;4988161;28;20223;-82
2024/01/19 04:27:03;;;;;;;2.58;2.47;;;-4.50;99.90;;;;;;4989434;28;20202;-84
2024/01/19 04:29:30;;;;;;;3.03;2.65;;;-4.60;99.90;;;;;;5000784;28;20222;-81
2024/01/19 04:31:57;;;;;;;4.63;3.05;;;-4.60;99.90;;;;;;4963339;28;20208;-81
2024/01/19 04:34:24;;;;;;;3.63;3.40;;;-4.60;99.90;;;;;;4966327;29;20282;-81
2024/01/19 04:36:51;;;;;;;2.55;2.45;;;-4.70;99.90;;;;;;4972459;28;20211;-81
2024/01/19 04:39:18;;;;;;;4.43;3.15;;;-4.60;99.90;;;;;;4985747;28;20215;-83
2024/01/19 04:41:45;;;;;;;3.58;3.20;;;-4.70;99.90;;;;;;4985089;28;20206;-83
2024/01/19 04:44:12;;;;;;;4.13;3.83;;;-4.80;99.90;;;;;;4979694;28;20211;-84
2024/01/19 04:46:48;;;;;;;5.88;5.38;;;-4.80;99.90;;;;;;4958246;28;20202;-82
2024/01/19 04:49:15;;;;;;;3.28;3.17;;;-4.80;99.90;;;;;;4984237;28;20294;-80
2024/01/19 04:51:42;;;;;;;2.28;2.17;;;-4.80;99.90;;;;;;4975999;28;20239;-81
2024/01/19 04:54:09;;;;;;;4.07;3.78;;;-4.90;99.90;;;;;;4983839;28;20298;-82
2024/01/19 04:56:36;;;;;;;3.70;2.13;;;-4.90;99.90;;;;;;4978958;28;20230;-81
2024/01/19 04:59:03;;;;;;;2.90;2.70;;;-4.90;99.90;;;;;;4983949;28;20329;-82
2024/01/19 05:01:30;;;;;;;3.25;2.10;;;-5.00;99.90;;;;;;4972821;28;20199;-82
2024/01/19 05:03:57;;;;;;;3.03;2.92;;;-4.90;99.90;;;;;;4978045;28;20363;-85
2024/01/19 05:06:24;;;;;;;2.65;2.55;;;-5.00;99.90;;;;;;4983273;28;20382;-84
2024/01/19 05:08:51;;;;;;;3.28;3.08;;;-4.90;99.90;;;;;;4976006;28;20211;-82
2024/01/19 05:11:18;;;;;;;3.95;3.65;;;-5.20;99.90;;;;;;4978539;28;20234;-81
2024/01/19 05:13:45;;;;;;;3.95;3.70;;;-5.20;99.90;;;;;;4966734;28;20217;-82
2024/01/19 05:16:12;;;;;;;9.80;2.38;;;-5.30;99.90;;;;;;4980479;28;20238;-81
2024/01/19 05:18:40;;;;;;;3.50;2.88;;;-5.20;99.90;;;;;;4973512;28;20265;-82
2024/01/19 05:21:08;;;;;;;15.75;3.38;;;-5.20;99.90;;;;;;4958884;28;20215;-81
2024/01/19 05:23:35;;;;;;;5.22;4.00;;;-5.40;99.90;;;;;;4979436;28;20432;-82
2024/01/19 05:26:06;;;;;;;4.57;3.95;;;-5.40;99.90;;;;;;4981443;28;20217;-82
2024/01/19 05:28:33;;;;;;;3.58;3.30;;;-5.50;99.90;;;;;;4978954;28;20294;-82
2024/01/19 05:31:02;;;;;;;9.52;7.07;;;-5.60;99.90;;;;;;4954077;28;20230;-82
2024/01/19 05:33:31;;;;;;;2.42;2.33;;;-5.60;99.90;;;;;;4975175;28;20792;-82
2024/01/19 05:36:03;;;;;;;6.03;5.63;;;-5.60;99.90;;;;;;4981812;28;20203;-83
2024/01/19 05:38:30;;;;;;;6.60;4.55;;;-5.70;99.90;;;;;;4977397;28;20241;-82
2024/01/19 05:41:01;;;;;;;5.85;4.63;;;-5.80;99.90;;;;;;4983230;28;20206;-83
2024/01/19 05:43:30;;;;;;;2.72;2.53;;;-5.70;99.90;;;;;;4981823;28;20203;-85
2024/01/19 05:45:57;;;;;;;7.78;4.93;;;-5.70;99.90;;;;;;4978539;28;20206;-83
2024/01/19 05:48:25;;;;;;;2.92;2.72;;;-5.60;99.90;;;;;;4978498;28;20211;-83
2024/01/19 05:50:53;;;;;;;7.95;5.70;;;-5.70;99.90;;;;;;4962934;28;20396;-83
2024/01/19 05:53:21;;;;;;;3.45;3.28;;;-5.80;99.90;;;;;;4958488;28;20222;-83
2024/01/19 05:55:48;;;;;;;7.63;6.07;;;-5.80;99.90;;;;;;4976630;28;20495;-86
2024/01/19 05:58:15;;;;;;;15.10;6.60;;;-5.90;99.90;;;;;;4988025;28;20258;-86
2024/01/19 06:00:43;;;;;;;1.70;1.60;;;-5.90;99.90;;;;;;4968801;28;20222;-85
2024/01/19 06:03:10;;;;;;;2.83;2.72;;;-5.90;99.90;;;;;;4972987;28;20203;-86
2024/01/19 06:05:37;;;;;;;1.95;1.85;;;-5.90;99.90;;;;;;4984114;28;20202;-82
2024/01/19 06:08:04;;;;;;;3.50;2.85;;;-5.90;99.90;;;;;;4980744;28;20234;-84
2024/01/19 06:10:31;;;;;;;3.85;3.65;;;-5.90;99.90;;;;;;4980185;28;20281;-84
2024/01/19 06:12:58;;;;;;;4.72;4.32;;;-6.00;99.90;;;;;;4975701;28;20207;-83
2024/01/19 06:15:25;;;;;;;3.65;2.67;;;-5.90;99.90;;;;;;4981592;28;20258;-83
2024/01/19 06:17:52;;;;;;;3.78;3.47;;;-5.90;99.90;;;;;;4975394;28;20235;-83
2024/01/19 06:20:19;;;;;;;3.53;3.33;;;-5.90;99.90;;;;;;4980342;28;20247;-84
2024/01/19 06:22:47;;;;;;;1.77;1.67;;;-5.90;99.90;;;;;;4983835;28;20630;-85
2024/01/19 06:25:14;;;;;;;5.90;5.47;;;-6.00;99.90;;;;;;4975473;28;20241;-83
2024/01/19 06:27:41;;;;;;;5.57;5.28;;;-6.10;99.90;;;;;;4950067;29;20239;-84
2024/01/19 06:30:08;;;;;;;7.70;4.00;;;-6.10;99.90;;;;;;4971983;28;20234;-83
2024/01/19 06:32:35;;;;;;;13.63;3.95;;;-6.00;99.90;;;;;;4979247;28;20210;-84
2024/01/19 06:35:03;;;;;;;2.50;2.38;;;-6.10;99.90;;;;;;4979161;28;20206;-83
2024/01/19 06:37:30;;;;;;;4.63;4.22;;;-6.10;99.90;;;;;;4973598;28;20499;-84
2024/01/19 06:39:57;;;;;;;2.33;2.22;;;-6.10;99.90;;;;;;4975924;28;20461;-84
2024/01/19 06:42:26;;;;;;;5.22;3.33;;;-6.00;99.90;;;;;;4965304;28;20282;-83
2024/01/19 06:44:53;;;;;;;2.20;2.10;;;-6.10;99.90;;;;;;4973919;28;20551;-83
2024/01/19 06:47:21;;;;;;;2.45;2.30;;;-6.00;99.90;;;;;;4979702;28;20228;-84
2024/01/19 06:49:48;;;;;;;3.03;2.78;;;-6.00;99.90;;;;;;4981559;28;20214;-82
2024/01/19 06:52:15;;;;;;;2.58;2.38;;;-6.00;99.90;;;;;;4978670;28;20348;-82
2024/01/19 06:54:42;;;;;;;2.40;2.22;;;-6.00;99.90;;;;;;4964073;28;20274;-82
2024/01/19 06:57:09;;;;;;;6.13;5.72;;;-6.00;99.90;;;;;;4963100;28;20395;-84
2024/01/19 06:59:36;;;;;;;3.65;3.45;;;-6.00;99.90;;;;;;4982645;28;20305;-85
2024/01/19 07:02:04;;;;;;;5.72;5.22;;;-6.00;99.90;;;;;;4981334;28;20238;-84
2024/01/19 07:04:31;;;;;;;1.73;1.63;;;-6.00;99.90;;;;;;4963657;28;20230;-85
2024/01/19 07:06:58;;;;;;;6.43;5.93;;;-6.00;99.90;;;;;;4982118;28;20230;-86
2024/01/19 07:09:29;;;;;;;3.03;2.92;;;-6.00;99.90;;;;;;4984939;28;20310;-85
2024/01/19 07:11:56;;;;;;;3.97;3.53;;;-6.00;99.90;;;;;;4987673;28;20277;-86
2024/01/19 07:14:24;;;;;;;7.28;2.38;;;-6.00;99.90;;;;;;4983862;28;20254;-84
2024/01/19 07:16:55;;;;;;;3.67;3.38;;;-6.00;99.90;;;;;;4984842;28;20210;-85
2024/01/19 07:19:22;;;;;;;14.02;5.22;;;-5.90;99.90;;;;;;4982485;28;20694;-86
2024/01/19 07:21:49;;;;;;;9.85;6.25;;;-5.80;99.90;;;;;;4971245;28;20702;-84
2024/01/19 07:24:16;;;;;;;3.17;2.97;;;-5.70;99.90;;;;;;4976777;28;20274;-83
2024/01/19 07:26:43;;;;;;;5.93;5.35;;;-5.70;99.90;;;;;;4982222;28;20203;-85
2024/01/19 07:29:11;;;;;;;13.75;6.20;;;-5.60;99.90;;;;;;4976724;28;20219;-83
2024/01/19 07:31:38;;;;;;;9.57;6.18;;;-5.50;99.90;;;;;;4980495;28;20266;-82
2024/01/19 07:34:07;;;;;;;8.52;5.45;;;-5.50;99.90;;;;;;4959707;28;20214;-87
2024/01/19 07:36:34;;;;;;;4.13;3.70;;;-5.40;99.90;;;;;;4983436;28;20206;-85
2024/01/19 07:39:01;;;;;;;5.82;5.28;;;-5.30;99.90;;;;;;4983375;28;20223;-83
2024/01/19 07:41:28;;;;;;;4.10;3.90;;;-5.20;99.90;;;;;;4986676;28;20253;-84
2024/01/19 07:43:55;;;;;;;3.58;3.28;;;-5.20;99.90;;;;;;4982884;28;20199;-83
2024/01/19 07:46:22;;;;;;;14.60;4.93;;;-5.10;99.90;;;;;;4983002;28;20277;-82
2024/01/19 07:48:49;;;;;;;6.80;5.45;;;-5.00;99.90;;;;;;4980800;28;20207;-83
2024/01/19 07:51:18;;;;;;;3.88;3.67;;;-5.00;99.90;;;;;;4984179;28;20234;-83
2024/01/19 07:53:45;;;;;;;4.10;3.80;;;-5.00;99.90;;;;;;4981956;28;20274;-84
2024/01/19 07:56:12;;;;;;;13.18;3.45;;;-4.90;99.90;;;;;;4986711;28;20199;-82
2024/01/19 07:58:43;;;;;;;2.58;2.47;;;-4.80;99.90;;;;;;4987052;28;20246;-84
2024/01/19 08:01:10;;;;;;;3.05;2.85;;;-4.70;99.90;;;;;;4979936;28;20238;-85
2024/01/19 08:03:38;;;;;;;4.20;1.92;;;-4.60;99.90;;;;;;4985234;28;20207;-82
2024/01/19 08:06:06;;;;;;;3.38;2.47;;;-4.50;99.90;;;;;;4978869;28;20231;-83
2024/01/19 08:08:32;;;;;;;2.80;2.63;;;-4.40;99.90;;;;;;4977650;28;20432;-81
2024/01/19 08:10:59;;;;;;;10.50;5.10;;;-4.40;99.90;;;;;;4972274;28;20251;-83
2024/01/19 08:13:26;;;;;;;7.25;4.63;;;-4.30;99.90;;;;;;4986038;28;20225;-82
2024/01/19 08:15:53;;;;;;;2.83;2.63;;;-4.30;99.90;;;;;;4978064;28;20234;-83
2024/01/19 08:18:20;;;;;;;8.75;3.58;;;-4.30;99.90;;;;;;4962017;28;20218;-83
2024/01/19 08:20:47;;;;;;;3.33;3.10;;;-4.30;99.90;;;;;;4980481;28;20230;-83
2024/01/19 08:23:14;;;;;;;10.23;3.25;;;-4.20;99.90;;;;;;4980098;28;20255;-82
2024/01/19 08:25:42;;;;;;;3.95;3.65;;;-4.10;99.90;;;;;;4988597;28;20203;-88
2024/01/19 08:28:09;;;;;;;1.90;1.65;;;-4.20;99.90;;;;;;4993380;28;20218;-87
2024/01/19 08:30:36;;;;;;;2.60;2.40;;;-4.00;99.90;;;;;;4970178;28;20266;-84
2024/01/19 08:33:03;;;;;;;4.40;4.10;;;-4.00;99.90;;;;;;4995876;28;20222;-83
2024/01/19 08:35:31;;;;;;;2.70;2.53;;;-3.90;99.90;;;;;;4983756;28;20199;-84
2024/01/19 08:37:58;;;;;;;4.50;4.07;;;-4.00;99.90;;;;;;4964813;28;20203;-83
2024/01/19 08:40:25;;;;;;;5.22;4.80;;;-4.00;99.90;;;;;;4985212;28;20230;-82
2024/01/19 08:42:52;;;;;;;2.65;2.55;;;-4.00;99.90;;;;;;4987826;28;20538;-83
2024/01/19 08:45:19;;;;;;;8.05;5.97;;;-4.00;99.90;;;;;;4970835;28;20226;-82
2024/01/19 08:47:48;;;;;;;3.53;3.30;;;-4.00;99.90;;;;;;4970379;28;20495;-81
2024/01/19 08:50:15;;;;;;;2.15;2.05;;;-4.00;99.90;;;;;;4962957;28;20230;-82
2024/01/19 08:52:42;;;;;;;2.90;2.70;;;-3.90;99.90;;;;;;4968461;28;20270;-83
2024/01/19 08:55:10;;;;;;;7.53;2.85;;;-3.90;99.90;;;;;;4972686;28;20423;-82
2024/01/19 08:57:36;;;;;;;2.88;2.67;;;-3.80;99.90;;;;;;4970287;28;20206;-83
2024/01/19 09:00:04;;;;;;;1.77;1.67;;;-3.80;99.90;;;;;;4954097;28;20227;-81
2024/01/19 09:02:32;;;;;;;3.38;3.08;;;-3.90;99.90;;;;;;4975255;28;20243;-82
2024/01/19 09:04:58;;;;;;;2.17;1.77;;;-3.90;99.90;;;;;;4983741;28;20214;-84
2024/01/19 09:07:26;;;;;;;2.88;2.67;;;-4.00;99.90;;;;;;4967520;28;20203;-81
2024/01/19 09:09:53;;;;;;;1.27;1.27;;;-4.00;99.90;;;;;;4981262;28;20399;-82
2024/01/19 09:12:20;;;;;;;2.67;2.55;;;-4.00;99.90;;;;;;4958182;28;20273;-83
2024/01/19 09:14:47;;;;;;;1.95;1.85;;;-4.00;99.90;;;;;;4976431;28;20230;-84
2024/01/19 09:17:14;;;;;;;2.47;2.38;;;-4.10;99.90;;;;;;4976118;28;20207;-82
2024/01/19 09:19:41;;;;;;;2.55;2.45;;;-4.10;99.90;;;;;;4971841;28;20255;-83
2024/01/19 09:22:08;;;;;;;1.75;1.65;;;-4.00;99.90;;;;;;4978092;28;20388;-81
2024/01/19 09:24:35;;;;;;;11.98;3.28;;;-4.00;99.90;;;;;;4960214;28;20270;-81
2024/01/19 09:27:02;;;;;;;3.05;2.85;;;-3.90;99.90;;;;;;4966812;29;20264;-85
2024/01/19 09:29:29;;;;;;;6.20;4.47;;;-3.80;99.90;;;;;;4986782;28;20709;-81
2024/01/19 09:31:56;;;;;;;2.15;2.05;;;-3.80;99.90;;;;;;4977959;28;20207;-82
2024/01/19 09:34:23;;;;;;;2.38;2.25;;;-3.80;99.90;;;;;;4976238;28;20215;-82
2024/01/19 09:36:50;;;;;;;3.10;2.90;;;-3.80;99.90;;;;;;4975446;28;20203;-82
2024/01/19 09:39:18;;;;;;;3.28;3.08;;;-3.90;99.90;;;;;;4982664;28;20389;-85
2024/01/19 09:41:54;;;;;;;3.13;2.88;;;-4.00;99.90;;;;;;4983360;28;20222;-84
2024/01/19 09:44:23;;;;;;;2.83;2.58;;;-3.90;99.90;;;;;;4949846;28;20500;-83
2024/01/19 09:46:53;;;;;;;3.40;3.20;;;-3.80;99.90;;;;;;4969183;28;20338;-81
2024/01/19 09:49:34;;;;;;;6.88;3.15;;;-3.80;99.90;;;;;;4983218;28;20250;-82
2024/01/19 09:52:10;;;;;;;2.15;2.05;;;-3.80;99.90;;;;;;4978363;28;20238;-82
2024/01/19 09:54:40;;;;;;;1.67;1.58;;;-3.70;99.90;;;;;;4980890;28;20230;-83
2024/01/19 09:57:06;;;;;;;3.15;2.92;;;-3.50;99.90;;;;;;4978076;28;20298;-79
2024/01/19 09:59:34;;;;;;;4.72;3.67;;;-3.40;99.90;;;;;;4975126;28;20251;-81
2024/01/19 10:02:00;;;;;;;0.70;0.70;;;-3.20;99.90;;;;;;4974637;28;20215;-81
2024/01/19 10:04:29;;;;;;;2.88;2.67;;;-3.20;99.90;;;;;;4971924;28;20215;-80
2024/01/19 10:06:56;;;;;;;1.92;1.83;;;-3.10;99.90;;;;;;4982785;28;20207;-82
2024/01/19 10:09:24;;;;;;;1.52;1.42;;;-3.00;99.90;;;;;;4983868;28;20238;-81
2024/01/19 10:11:52;;;;;;;1.67;1.58;;;-2.80;99.90;;;;;;4974253;28;20267;-80
2024/01/19 10:14:20;;;;;;;1.95;1.85;;;-2.60;99.90;;;;;;4956559;29;20216;-80
2024/01/19 10:16:48;;;;;;;0.80;0.80;;;-2.50;99.90;;;;;;4980640;28;20270;-81
2024/01/19 10:19:16;;;;;;;2.90;2.70;;;-2.40;99.90;;;;;;4953878;29;20290;-81
2024/01/19 10:21:44;;;;;;;2.78;2.50;;;-2.40;99.90;;;;;;4957032;28;20227;-80
2024/01/19 10:24:15;;;;;;;4.22;2.47;;;-2.30;99.90;;;;;;4977251;28;20265;-79
2024/01/19 10:26:42;;;;;;;4.22;2.85;;;-2.20;99.90;;;;;;4971261;28;20229;-81
2024/01/19 10:29:16;;;;;;;0.80;0.80;;;-2.20;99.90;;;;;;4958573;29;20246;-81
2024/01/19 10:31:49;;;;;;;5.88;2.05;;;-2.10;99.90;;;;;;4985949;28;20257;-80
2024/01/19 10:34:22;;;;;;;1.42;1.33;;;-1.80;99.90;;;;;;4978368;28;20215;-81
2024/01/19 10:36:50;;;;;;;1.15;1.15;;;-1.90;99.90;;;;;;4986423;28;20368;-81
2024/01/19 10:39:29;;;;;;;1.35;1.35;;;-1.80;99.90;;;;;;4997046;28;20197;-81
2024/01/19 10:42:08;;;;;;;0.90;0.90;;;-1.70;99.90;;;;;;4987270;28;20210;-84
2024/01/19 10:44:36;;;;;;;9.43;4.70;;;-1.70;99.90;;;;;;4978704;28;20195;-81
2024/01/19 10:47:03;;;;;;;5.75;3.10;;;-1.70;99.90;;;;;;4988871;28;20486;-80
2024/01/19 10:49:34;;;;;;;1.38;1.27;;;-1.70;99.90;;;;;;4978611;28;20250;-81
2024/01/19 10:52:02;;;;;;;1.15;1.15;;;-1.60;99.90;;;;;;4983212;28;20215;-81
2024/01/19 10:54:29;;;;;;;1.38;1.38;;;-1.50;99.90;;;;;;4977523;28;20278;-81
2024/01/19 10:57:08;;;;;;;2.60;2.40;;;-1.50;99.90;;;;;;4980752;28;20513;-80
2024/01/19 10:59:36;;;;;;;2.40;2.30;;;-1.40;99.90;;;;;;4983205;28;20214;-78
2024/01/19 11:02:03;;;;;;;1.00;1.00;;;-1.40;99.90;;;;;;4963810;28;20198;-79
2024/01/19 11:04:32;;;;;;;2.03;1.08;;;-1.20;99.90;;;;;;4984718;28;20203;-81
2024/01/19 11:07:00;;;;;;;2.90;2.08;;;-1.20;99.90;;;;;;4981159;28;20211;-79
2024/01/19 11:09:27;;;;;;;2.45;2.25;;;-1.10;99.90;;;;;;4983021;28;20214;-81
2024/01/19 11:11:57;;;;;;;1.75;1.65;;;-1.00;99.90;;;;;;4987703;28;20208;-80
2024/01/19 11:14:26;;;;;;;0.80;0.80;;;-1.00;99.90;;;;;;4983793;28;20249;-83
2024/01/19 11:16:55;;;;;;;3.47;3.28;;;-0.90;99.90;;;;;;4979442;28;20694;-79
2024/01/19 11:19:23;;;;;;;4.63;2.60;;;-0.70;99.90;;;;;;4986786;28;20218;-81
2024/01/19 11:21:51;;;;;;;0.98;0.98;;;-0.90;99.90;;;;;;4981694;28;20483;-79
2024/01/19 11:24:20;;;;;;;2.05;1.20;;;-0.80;99.90;;;;;;4985257;28;20293;-80
2024/01/19 11:27:11;;;;;;;0.60;0.60;;;-0.70;99.90;;;;;;4990163;28;20270;-80
2024/01/19 11:29:42;;;;;;;0.80;0.80;;;-0.70;99.90;;;;;;4968255;28;20211;-81
2024/01/19 11:32:11;;;;;;;0.50;0.50;;;-0.60;99.90;;;;;;4981402;28;20259;-79
2024/01/19 11:34:38;;;;;;;1.27;1.25;;;-0.50;99.90;;;;;;4985700;28;20226;-78
2024/01/19 11:37:06;;;;;;;0.60;0.60;;;-0.50;99.90;;;;;;4976147;28;20195;-78
2024/01/19 11:39:42;;;;;;;5.38;4.55;;;-0.50;99.90;;;;;;4980387;28;20209;-80
2024/01/19 11:42:42;;;;;;;0.93;0.93;;;-0.50;99.90;;;;;;4986280;28;20301;-81
2024/01/19 11:45:42;;;;;;;2.95;1.85;;;-0.40;99.90;;;;;;4979429;28;20210;-82
2024/01/19 11:48:11;;;;;;;0.75;0.75;;;-0.40;99.90;;;;;;4980930;28;20209;-81
2024/01/19 11:50:47;;;;;;;1.65;1.60;;;-0.30;99.90;;;;;;4989106;28;20221;-79
2024/01/19 11:53:14;;;;;;;1.73;1.63;;;-0.20;99.90;;;;;;4955680;28;20206;-79
2024/01/19 11:55:47;;;;;;;1.05;1.05;;;-0.20;99.90;;;;;;4980370;28;20217;-81
2024/01/19 11:58:39;;;;;;;0.70;0.70;;;-0.10;99.90;;;;;;4979116;28;20273;-77
2024/01/19 12:01:07;;;;;;;0.80;0.80;;;-0.20;99.90;;;;;;4983408;28;20235;-80
2024/01/19 12:03:35;;;;;;;2.05;1.77;;;-0.10;99.90;;;;;;4993464;28;20218;-80
2024/01/19 12:06:05;;;;;;;1.20;1.10;;;-0.10;99.90;;;;;;4978892;29;20234;-81
2024/01/19 12:08:33;;;;;;;8.63;2.75;;;-0.10;99.90;;;;;;4994659;28;20211;-81
2024/01/19 12:11:06;;;;;;;3.80;2.10;;;0.00;99.90;;;;;;4977504;28;20195;-80
2024/01/19 12:13:35;;;;;;;1.55;1.45;;;0.20;99.90;;;;;;4996397;28;20209;-84
2024/01/19 12:16:03;;;;;;;5.35;4.00;;;0.10;99.90;;;;;;4981478;28;20237;-81
2024/01/19 12:18:33;;;;;;;3.72;1.77;;;0.00;99.90;;;;;;4974806;28;20204;-82
2024/01/19 12:21:00;;;;;;;2.22;0.95;;;0.10;99.90;;;;;;4976828;28;20238;-79
2024/01/19 12:23:29;;;;;;;1.52;1.52;;;0.10;99.90;;;;;;4965274;28;20242;-80
2024/01/19 12:25:57;;;;;;;0.70;0.70;;;0.20;99.90;;;;;;4975366;28;20210;-80
2024/01/19 12:28:25;;;;;;;0.98;0.98;;;0.00;99.90;;;;;;4986343;28;20203;-80
2024/01/19 12:30:53;;;;;;;0.60;0.60;;;0.00;99.90;;;;;;4968924;28;20199;-84
2024/01/19 12:33:25;;;;;;;0.90;0.90;;;0.10;99.90;;;;;;4978390;28;20251;-82
2024/01/19 12:36:10;;;;;;;0.60;0.60;;;0.20;99.90;;;;;;4996728;28;20187;-79
2024/01/19 12:38:40;;;;;;;0.90;0.90;;;0.10;99.90;;;;;;4976587;28;20262;-82
2024/01/19 12:41:14;;;;;;;0.73;0.73;;;0.20;99.90;;;;;;4969165;28;20226;-79
2024/01/19 12:43:42;;;;;;;0.60;0.60;;;0.20;99.90;;;;;;4986819;28;20570;-79
2024/01/19 12:46:09;;;;;;;1.10;1.10;;;0.30;99.90;;;;;;4979907;28;20227;-79
2024/01/19 12:48:37;;;;;;;0.50;0.50;;;0.30;99.90;;;;;;4975225;28;20522;-80
2024/01/19 12:51:07;;;;;;;4.88;1.25;;;0.30;99.90;;;;;;4980633;28;20202;-87
2024/01/19 12:53:35;;;;;;;0.93;0.93;;;-0.10;99.90;;;;;;4994950;28;20222;-85